Weather at Lynden Pindling International Airport

Public forecast

Using degrees Celsius for public forecast. Weather courtesy of forecast.io.

Current aviation weather report (METAR) for Lynden Pindling International Airport

Retrieved 2021/06/19 23:00 UTC (36 minutes ago):

MYNN 192300Z 12011KT 9999 FEW025 BKN250 30/24 A3007

Aviation forecast (TAF) for Lynden Pindling International Airport

Forecast is more than 12 hours old.

Retrieved 2021/06/19 06:25 UTC (17 hours ago):

TAF MYNN 190400Z 1906/2006 11010KT 9999 SCT020 SCT100 OVC220